createdAt,value
2022-08-02T00:01:01.660Z,100.00
2022-08-02T00:03:29.952Z,100.00
2022-08-02T00:05:59.021Z,100.00
2022-08-02T00:08:28.910Z,100.00
2022-08-02T00:10:57.105Z,100.00
2022-08-02T00:13:25.317Z,100.00
2022-08-02T00:15:53.796Z,100.00
2022-08-02T00:18:22.027Z,100.00
2022-08-02T00:20:50.205Z,100.00
2022-08-02T00:27:09.106Z,100.00
2022-08-02T00:29:50.491Z,100.00
2022-08-02T00:32:20.534Z,100.00
2022-08-02T00:34:48.733Z,100.00
2022-08-02T00:37:17.227Z,100.00
2022-08-02T00:39:45.491Z,100.00
2022-08-02T00:42:16.942Z,100.00
2022-08-02T00:44:45.137Z,100.00
2022-08-02T00:47:14.966Z,100.00
2022-08-02T00:49:47.897Z,100.00
2022-08-02T00:52:16.147Z,100.00
2022-08-02T00:54:44.366Z,100.00
2022-08-02T00:57:12.553Z,100.00
2022-08-02T00:59:42.543Z,100.00
2022-08-02T01:02:11.141Z,100.00
2022-08-02T01:04:39.537Z,100.00
2022-08-02T01:07:12.628Z,100.00
2022-08-02T01:09:43.195Z,100.00
2022-08-02T01:12:12.253Z,100.00
2022-08-02T01:14:42.205Z,100.00
2022-08-02T01:17:12.026Z,100.00
2022-08-02T01:23:01.171Z,100.00
2022-08-02T01:25:39.159Z,100.00
2022-08-02T01:28:23.370Z,100.00
2022-08-02T01:30:51.971Z,100.00
2022-08-02T01:33:21.928Z,100.00
2022-08-02T01:35:54.277Z,100.00
2022-08-02T01:38:25.376Z,100.00
2022-08-02T01:40:53.567Z,100.00
2022-08-02T01:43:23.176Z,100.00
2022-08-02T01:45:51.388Z,100.00
2022-08-02T01:48:19.628Z,100.00
2022-08-02T01:50:47.831Z,100.00
2022-08-02T01:53:16.036Z,100.00
2022-08-02T01:55:58.304Z,100.00
2022-08-02T01:58:30.016Z,100.00
2022-08-02T02:00:59.111Z,100.00
2022-08-02T02:03:27.416Z,100.00
2022-08-02T02:05:57.675Z,100.00
2022-08-02T02:08:27.926Z,100.00
2022-08-02T02:10:56.342Z,100.00
2022-08-02T02:13:33.583Z,100.00
2022-08-02T02:16:04.745Z,100.00
2022-08-02T02:18:33.223Z,100.00
2022-08-02T02:21:01.433Z,100.00
2022-08-02T02:23:32.142Z,100.00
2022-08-02T02:26:04.584Z,100.00
2022-08-02T02:28:34.184Z,100.00
2022-08-02T02:31:05.154Z,100.00
2022-08-02T02:33:33.396Z,100.00
2022-08-02T02:36:02.061Z,100.00
2022-08-02T02:38:32.717Z,100.00
2022-08-02T02:41:02.284Z,100.00
2022-08-02T02:43:30.490Z,100.00
2022-08-02T02:45:58.694Z,100.00
2022-08-02T02:48:28.504Z,100.00
2022-08-02T02:50:56.787Z,100.00
2022-08-02T02:53:24.975Z,100.00
2022-08-02T02:56:02.502Z,100.00
2022-08-02T02:58:31.838Z,100.00
2022-08-02T03:01:13.873Z,100.00
2022-08-02T03:03:44.588Z,100.00
2022-08-02T03:06:14.971Z,100.00
2022-08-02T03:08:44.086Z,100.00
2022-08-02T03:11:12.289Z,100.00
2022-08-02T03:13:40.825Z,100.00
2022-08-02T03:16:09.037Z,100.00
2022-08-02T03:18:37.976Z,100.00
2022-08-02T03:21:09.458Z,100.00
2022-08-02T03:23:37.645Z,100.00
2022-08-02T03:26:05.881Z,100.00
2022-08-02T03:28:34.452Z,100.00
2022-08-02T03:31:02.749Z,100.00
2022-08-02T03:33:31.425Z,100.00
2022-08-02T03:36:00.672Z,100.00
2022-08-02T03:38:31.324Z,100.00
2022-08-02T03:40:59.685Z,100.00
2022-08-02T03:43:28.619Z,100.00
2022-08-02T03:45:57.153Z,100.00
2022-08-02T03:48:34.946Z,100.00
2022-08-02T03:51:03.852Z,100.00
2022-08-02T03:53:33.963Z,100.00
2022-08-02T03:56:02.204Z,100.00
2022-08-02T03:58:30.708Z,100.00
2022-08-02T04:00:59.282Z,100.00
2022-08-02T04:03:27.673Z,100.00
2022-08-02T04:06:05.477Z,100.00
2022-08-02T04:08:38.386Z,100.00
2022-08-02T04:11:20.988Z,100.00
2022-08-02T04:13:49.809Z,100.00
2022-08-02T04:16:21.813Z,100.00
2022-08-02T04:18:53.200Z,100.00
2022-08-02T04:21:22.245Z,100.00
2022-08-02T04:23:51.945Z,100.00
2022-08-02T04:26:21.885Z,100.00
2022-08-02T04:28:55.489Z,100.00
2022-08-02T04:31:23.743Z,100.00
2022-08-02T04:33:52.310Z,100.00
2022-08-02T04:36:31.234Z,100.00
2022-08-02T04:39:01.545Z,100.00
2022-08-02T04:41:43.785Z,100.00
2022-08-02T04:44:12.376Z,100.00
2022-08-02T04:46:40.704Z,100.00
2022-08-02T04:49:09.065Z,100.00
2022-08-02T04:51:38.444Z,100.00
2022-08-02T04:54:09.904Z,100.00
2022-08-02T04:56:38.637Z,100.00
2022-08-02T04:59:07.234Z,100.00
2022-08-02T05:01:35.863Z,100.00
2022-08-02T05:04:04.208Z,100.00
2022-08-02T05:06:32.513Z,100.00
2022-08-02T05:09:01.139Z,100.00
2022-08-02T05:11:36.519Z,100.00
2022-08-02T05:14:05.799Z,100.00
2022-08-02T05:16:34.329Z,100.00
2022-08-02T05:19:02.768Z,100.00
2022-08-02T05:21:31.861Z,100.00
2022-08-02T05:24:01.631Z,100.00
2022-08-02T05:26:31.273Z,100.00
2022-08-02T05:28:59.507Z,100.00
2022-08-02T05:31:28.025Z,100.00
2022-08-02T05:33:56.269Z,100.00
2022-08-02T05:36:24.525Z,100.00
2022-08-02T05:38:59.686Z,100.00
2022-08-02T05:41:34.812Z,100.00
2022-08-02T05:44:03.060Z,100.00
2022-08-02T05:46:31.608Z,100.00
2022-08-02T05:48:59.876Z,100.00
2022-08-02T05:51:32.465Z,100.00
2022-08-02T05:54:04.017Z,100.00
2022-08-02T05:56:36.459Z,100.00
2022-08-02T06:02:13.440Z,100.00
2022-08-02T06:04:53.003Z,100.00
2022-08-02T06:07:21.258Z,100.00
2022-08-02T06:09:50.122Z,100.00
2022-08-02T06:12:19.807Z,100.00
2022-08-02T06:14:51.396Z,100.00
2022-08-02T06:17:23.033Z,100.00
2022-08-02T06:19:52.699Z,100.00
2022-08-02T06:22:34.781Z,100.00
2022-08-02T06:25:06.303Z,100.00
2022-08-02T06:27:36.194Z,100.00
2022-08-02T06:30:04.848Z,100.00
2022-08-02T06:32:33.494Z,100.00
2022-08-02T06:35:01.937Z,100.00
2022-08-02T06:37:37.029Z,100.00
2022-08-02T06:40:08.174Z,100.00
2022-08-02T06:42:43.152Z,100.00
2022-08-02T06:45:11.443Z,100.00
2022-08-02T06:47:39.786Z,100.00
2022-08-02T06:50:09.052Z,100.00
2022-08-02T06:52:37.370Z,100.00
2022-08-02T06:55:06.666Z,100.00
2022-08-02T06:57:35.092Z,100.00
2022-08-02T07:00:08.839Z,100.00
2022-08-02T07:02:37.224Z,100.00
2022-08-02T07:05:05.954Z,100.00
2022-08-02T07:07:34.268Z,100.00
2022-08-02T07:10:02.506Z,100.00
2022-08-02T07:12:31.719Z,100.00
2022-08-02T07:15:00.403Z,100.00
2022-08-02T07:17:30.151Z,100.00
2022-08-02T07:19:58.943Z,100.00
2022-08-02T07:22:28.864Z,100.00
2022-08-02T07:24:57.861Z,100.00
2022-08-02T07:27:26.251Z,100.00
2022-08-02T07:29:54.850Z,100.00
2022-08-02T07:32:24.267Z,100.00
2022-08-02T07:34:55.085Z,100.00
2022-08-02T07:37:35.264Z,100.00
2022-08-02T07:40:15.373Z,100.00
2022-08-02T07:42:48.801Z,100.00
2022-08-02T07:45:17.181Z,100.00
2022-08-02T07:47:45.758Z,100.00
2022-08-02T07:50:16.875Z,100.00
2022-08-02T07:52:46.012Z,100.00
2022-08-02T07:55:16.091Z,100.00
2022-08-02T07:57:46.655Z,100.00
2022-08-02T08:00:17.559Z,100.00
2022-08-02T08:02:46.380Z,100.00
2022-08-02T08:05:16.159Z,100.00
2022-08-02T08:07:44.614Z,100.00
2022-08-02T08:10:12.995Z,100.00
2022-08-02T08:12:42.296Z,100.00
2022-08-02T08:15:11.778Z,100.00
2022-08-02T08:17:40.102Z,100.00
2022-08-02T08:20:14.018Z,100.00
2022-08-02T08:22:46.959Z,100.00
2022-08-02T08:25:15.327Z,100.00
2022-08-02T08:27:50.142Z,100.00
2022-08-02T08:30:18.582Z,100.00
2022-08-02T08:32:47.202Z,100.00
2022-08-02T08:35:15.542Z,100.00
2022-08-02T08:37:45.366Z,100.00
2022-08-02T08:40:19.471Z,100.00
2022-08-02T08:42:48.995Z,100.00
2022-08-02T08:45:18.232Z,100.00
2022-08-02T08:47:46.872Z,100.00
2022-08-02T08:50:22.865Z,100.00
2022-08-02T08:53:07.686Z,100.00
2022-08-02T08:55:36.733Z,100.00
2022-08-02T08:58:06.471Z,100.00
2022-08-02T09:00:35.937Z,100.00
2022-08-02T09:03:04.868Z,100.00
2022-08-02T09:05:33.202Z,100.00
2022-08-02T09:08:03.058Z,100.00
2022-08-02T09:10:34.729Z,100.00
2022-08-02T09:13:38.811Z,100.00
2022-08-02T09:16:11.327Z,100.00
2022-08-02T09:18:43.965Z,100.00
2022-08-02T09:21:12.481Z,100.00
2022-08-02T09:23:43.004Z,100.00
2022-08-02T09:26:15.085Z,100.00
2022-08-02T09:28:48.925Z,100.00
2022-08-02T09:31:27.163Z,100.00
2022-08-02T09:34:27.191Z,100.00
2022-08-02T09:36:56.148Z,100.00
2022-08-02T09:39:26.581Z,100.00
2022-08-02T09:41:55.173Z,100.00
2022-08-02T09:44:40.929Z,100.00
2022-08-02T09:47:31.114Z,100.00
2022-08-02T09:53:00.157Z,100.00
2022-08-02T09:55:28.728Z,100.00
2022-08-02T09:57:57.012Z,100.00
2022-08-02T10:00:37.428Z,100.00
2022-08-02T10:03:22.181Z,100.00
2022-08-02T10:06:09.904Z,100.00
2022-08-02T10:08:41.153Z,100.00
2022-08-02T10:11:09.446Z,100.00
2022-08-02T10:13:37.948Z,100.00
2022-08-02T10:16:07.534Z,100.00
2022-08-02T10:18:40.640Z,100.00
2022-08-02T10:21:16.041Z,100.00
2022-08-02T10:23:46.746Z,100.00
2022-08-02T10:26:17.681Z,100.00
2022-08-02T10:28:48.157Z,100.00
2022-08-02T10:31:17.262Z,100.00
2022-08-02T10:33:50.252Z,100.00
2022-08-02T10:36:18.828Z,100.00
2022-08-02T10:39:06.260Z,100.00
2022-08-02T10:41:45.492Z,100.00
2022-08-02T10:44:24.306Z,100.00
2022-08-02T10:46:53.892Z,100.00
2022-08-02T10:49:39.866Z,100.00
2022-08-02T10:52:10.460Z,100.00
2022-08-02T10:54:41.430Z,100.00
2022-08-02T10:57:25.291Z,100.00
2022-08-02T11:00:12.608Z,100.00
2022-08-02T11:03:04.796Z,100.00
2022-08-02T11:05:42.987Z,100.00
2022-08-02T11:08:19.969Z,100.00
2022-08-02T11:10:49.865Z,100.00
2022-08-02T11:13:19.817Z,100.00
2022-08-02T11:15:51.096Z,100.00
2022-08-02T11:18:43.672Z,100.00
2022-08-02T11:21:22.937Z,100.00
2022-08-02T11:23:51.642Z,100.00
2022-08-02T11:26:46.608Z,100.00
2022-08-02T11:29:15.882Z,100.00
2022-08-02T11:31:46.229Z,100.00
2022-08-02T11:34:26.618Z,100.00
2022-08-02T11:37:03.423Z,100.00
2022-08-02T11:39:31.908Z,100.00
2022-08-02T11:42:01.959Z,97.82
2022-08-02T13:35:18.038Z,89.03
2022-08-02T13:37:47.967Z,89.75
2022-08-02T13:40:23.464Z,89.44
2022-08-02T13:42:53.917Z,87.17
2022-08-02T13:45:22.628Z,91.08
2022-08-02T13:47:57.623Z,88.61
2022-08-02T13:50:34.778Z,89.98
2022-08-02T13:53:03.376Z,90.00
2022-08-02T13:55:31.961Z,89.65
2022-08-02T13:58:09.332Z,87.41
2022-08-02T14:00:37.610Z,89.19
2022-08-02T14:03:07.550Z,88.00
2022-08-02T14:05:47.179Z,87.38
2022-08-02T14:08:18.009Z,91.12
2022-08-02T14:10:47.103Z,92.05
2022-08-02T14:13:15.496Z,90.41
2022-08-02T14:15:44.210Z,90.06
2022-08-02T14:18:12.552Z,91.33
2022-08-02T14:20:42.286Z,87.04
2022-08-02T14:23:10.576Z,88.62
2022-08-02T14:25:38.852Z,86.33
2022-08-02T14:28:11.148Z,88.87
2022-08-02T14:30:42.557Z,88.31
2022-08-02T14:33:11.125Z,89.46
2022-08-02T14:35:39.677Z,89.18
2022-08-02T14:38:09.417Z,86.74
2022-08-02T14:40:37.728Z,87.85
2022-08-02T14:43:06.218Z,88.78
2022-08-02T14:45:40.760Z,87.76
2022-08-02T14:48:11.366Z,85.11
2022-08-02T14:50:39.950Z,86.54
2022-08-02T14:53:12.383Z,85.24
2022-08-02T14:55:44.837Z,81.79
2022-08-02T14:58:13.334Z,84.71
2022-08-02T15:00:43.786Z,84.17
2022-08-02T15:03:13.236Z,81.45
2022-08-02T15:05:41.618Z,82.38
2022-08-02T15:08:11.267Z,81.71
2022-08-02T15:10:45.727Z,80.89
2022-08-02T15:13:14.073Z,79.70
2022-08-02T15:15:43.740Z,78.09
2022-08-02T15:18:14.911Z,80.54
2022-08-02T15:20:50.771Z,79.70
2022-08-02T15:23:37.575Z,76.99
2022-08-02T15:26:07.414Z,79.71
2022-08-02T15:28:35.737Z,81.04
2022-08-02T15:31:04.422Z,80.32
2022-08-02T15:33:32.948Z,81.30
2022-08-02T15:36:01.565Z,80.62
2022-08-02T15:38:31.210Z,81.60
2022-08-02T15:40:59.509Z,81.03
2022-08-02T15:43:27.783Z,81.67
2022-08-02T15:46:14.672Z,79.60
2022-08-02T15:48:43.394Z,81.69
2022-08-02T15:51:12.026Z,81.76
2022-08-02T15:53:41.704Z,80.95
2022-08-02T15:56:13.045Z,79.08
2022-08-02T15:58:42.562Z,80.03
2022-08-02T16:01:13.004Z,79.54
2022-08-02T16:03:41.401Z,80.71
2022-08-02T16:06:09.684Z,81.11
2022-08-02T16:08:38.285Z,78.84
2022-08-02T16:11:17.523Z,80.44
2022-08-02T16:13:54.884Z,78.84
2022-08-02T16:16:23.636Z,81.66
2022-08-02T16:18:52.062Z,81.82
2022-08-02T16:21:20.658Z,79.70
2022-08-02T16:24:00.472Z,80.25
2022-08-02T16:26:33.278Z,82.31
2022-08-02T16:29:01.796Z,79.17
2022-08-02T16:31:30.073Z,78.62
2022-08-02T16:33:58.668Z,83.21
2022-08-02T16:36:27.344Z,80.81
2022-08-02T16:38:55.695Z,80.76
2022-08-02T16:41:24.117Z,83.57
2022-08-02T16:44:13.798Z,82.71
2022-08-02T16:46:45.125Z,84.24
2022-08-02T16:50:06.078Z,82.84
2022-08-02T16:52:02.352Z,82.76
2022-08-02T16:54:31.055Z,83.74
2022-08-02T16:56:59.336Z,84.85
2022-08-02T16:59:34.050Z,83.76
2022-08-02T17:02:15.135Z,82.75
2022-08-02T17:04:53.098Z,85.17
2022-08-02T17:07:21.372Z,83.49
2022-08-02T17:10:10.224Z,84.90
2022-08-02T17:12:38.880Z,86.41
2022-08-02T17:15:53.028Z,84.98
2022-08-02T17:17:58.158Z,86.24
2022-08-02T17:20:26.608Z,83.37
2022-08-02T17:22:54.923Z,87.81
2022-08-02T17:25:24.791Z,86.92
2022-08-02T17:27:55.985Z,86.74
2022-08-02T17:30:26.882Z,88.78
2022-08-02T17:33:13.985Z,89.15
2022-08-02T17:35:51.991Z,88.64
2022-08-02T17:41:15.255Z,89.08
2022-08-02T17:43:44.153Z,90.37
2022-08-02T17:46:14.368Z,91.47
2022-08-02T17:48:56.922Z,87.84
2022-08-02T17:52:16.115Z,90.17
2022-08-02T17:54:18.743Z,90.15
2022-08-02T17:56:47.322Z,90.93
2022-08-02T17:59:20.909Z,90.95
2022-08-02T18:01:54.314Z,90.74
2022-08-02T18:04:27.450Z,91.59
2022-08-02T18:06:57.250Z,90.76
2022-08-02T18:09:26.059Z,90.79
2022-08-02T18:11:55.150Z,91.11
2022-08-02T18:14:24.470Z,91.40
2022-08-02T18:16:56.441Z,91.89
2022-08-02T18:19:42.651Z,93.46
2022-08-02T18:22:14.634Z,93.14
2022-08-02T18:24:44.921Z,93.00
2022-08-02T18:27:14.225Z,91.69
2022-08-02T18:29:42.484Z,92.22
2022-08-02T18:32:12.479Z,94.15
2022-08-02T18:34:40.962Z,93.36
2022-08-02T18:37:15.985Z,93.48
2022-08-02T18:39:51.421Z,96.07
2022-08-02T18:42:20.198Z,95.84
2022-08-02T18:44:48.791Z,98.09
2022-08-02T18:47:18.441Z,97.16
2022-08-02T18:49:51.506Z,98.88
2022-08-02T18:52:31.432Z,98.75
2022-08-02T18:55:00.410Z,98.98
2022-08-02T18:58:17.527Z,98.61
2022-08-02T19:00:20.479Z,99.76
2022-08-02T19:02:50.409Z,99.82
2022-08-02T19:05:21.126Z,100.00
2022-08-02T19:07:49.776Z,100.00
2022-08-02T19:10:19.856Z,100.00
2022-08-02T19:12:51.590Z,100.00
2022-08-02T19:15:20.442Z,100.00
2022-08-02T19:17:55.673Z,100.00
2022-08-02T19:20:25.544Z,100.00
2022-08-02T19:22:54.323Z,100.00
2022-08-02T19:25:27.849Z,100.00
2022-08-02T19:27:57.591Z,100.00
2022-08-02T19:30:27.772Z,100.00
2022-08-02T19:32:58.950Z,100.00
2022-08-02T19:35:29.508Z,100.00
2022-08-02T19:38:07.593Z,100.00
2022-08-02T19:40:56.321Z,100.00
2022-08-02T19:44:25.692Z,100.00
2022-08-02T19:46:15.899Z,100.00
2022-08-02T19:48:47.435Z,100.00
2022-08-02T19:51:16.174Z,100.00
2022-08-02T19:54:04.392Z,100.00
2022-08-02T19:56:32.839Z,100.00
2022-08-02T19:59:12.959Z,100.00
2022-08-02T20:01:48.505Z,100.00
2022-08-02T20:07:11.689Z,100.00
2022-08-02T20:09:53.190Z,100.00
2022-08-02T20:12:21.753Z,100.00
2022-08-02T20:14:51.079Z,100.00
2022-08-02T20:17:20.914Z,100.00
2022-08-02T20:19:51.363Z,100.00
2022-08-02T20:22:20.557Z,100.00
2022-08-02T20:24:49.004Z,100.00
2022-08-02T20:27:23.044Z,100.00
2022-08-02T20:29:52.474Z,100.00
2022-08-02T20:32:38.235Z,100.00
2022-08-02T20:35:08.710Z,100.00
2022-08-02T20:38:00.972Z,100.00
2022-08-02T20:40:25.593Z,100.00
2022-08-02T20:42:54.266Z,100.00
2022-08-02T20:45:23.330Z,100.00
2022-08-02T20:48:00.056Z,100.00
2022-08-02T20:50:44.023Z,100.00
2022-08-02T20:53:23.798Z,100.00
2022-08-02T20:55:55.958Z,100.00
2022-08-02T20:58:26.540Z,100.00
2022-08-02T21:00:59.450Z,100.00
2022-08-02T21:03:39.144Z,100.00
2022-08-02T21:06:11.544Z,100.00
2022-08-02T21:08:45.978Z,100.00
2022-08-02T21:11:15.296Z,100.00
2022-08-02T21:13:47.227Z,100.00
2022-08-02T21:16:31.866Z,100.00
2022-08-02T21:19:02.503Z,100.00
2022-08-02T21:21:32.162Z,100.00
2022-08-02T21:24:01.521Z,100.00
2022-08-02T21:26:31.123Z,100.00
2022-08-02T21:29:03.674Z,100.00
2022-08-02T21:31:35.665Z,100.00
2022-08-02T21:34:21.865Z,100.00
2022-08-02T21:36:54.043Z,100.00
2022-08-02T21:39:22.486Z,100.00
2022-08-02T21:41:51.334Z,100.00
2022-08-02T21:44:21.033Z,100.00
2022-08-02T21:46:50.245Z,100.00
2022-08-02T21:49:20.075Z,100.00
2022-08-02T21:51:49.406Z,100.00
2022-08-02T21:54:21.181Z,100.00
2022-08-02T21:56:52.266Z,100.00
2022-08-02T21:59:26.344Z,100.00
2022-08-02T22:01:56.778Z,100.00
2022-08-02T22:04:26.187Z,100.00
2022-08-02T22:06:55.373Z,100.00
2022-08-02T22:09:44.309Z,100.00
2022-08-02T22:12:18.319Z,100.00
2022-08-02T22:14:53.718Z,100.00
2022-08-02T22:17:52.007Z,100.00
2022-08-02T22:20:13.747Z,100.00
2022-08-02T22:22:42.328Z,100.00
2022-08-02T22:25:21.432Z,100.00
2022-08-02T22:28:11.917Z,100.00
2022-08-02T22:33:59.909Z,100.00
2022-08-02T22:36:30.065Z,100.00
2022-08-02T22:38:58.646Z,100.00
2022-08-02T22:42:06.428Z,100.00
2022-08-02T22:44:18.414Z,100.00
2022-08-02T22:49:38.656Z,100.00
2022-08-02T22:52:20.992Z,100.00
2022-08-02T22:54:49.541Z,100.00
2022-08-02T22:58:39.406Z,89.28
2022-08-02T22:58:54.319Z,100.00
2022-08-02T22:59:09.787Z,100.00
2022-08-02T22:59:10.024Z,100.00
2022-08-02T22:59:10.864Z,100.00
2022-08-02T23:00:10.174Z,100.00
2022-08-02T23:02:38.578Z,100.00
2022-08-02T23:05:07.163Z,100.00
2022-08-02T23:07:37.031Z,100.00
2022-08-02T23:10:08.138Z,100.00
2022-08-02T23:12:37.910Z,100.00
2022-08-02T23:15:06.660Z,100.00
2022-08-02T23:17:49.081Z,100.00
2022-08-02T23:20:21.258Z,100.00
2022-08-02T23:22:49.536Z,100.00
2022-08-02T23:25:18.137Z,100.00
2022-08-02T23:27:50.466Z,100.00
2022-08-02T23:30:18.990Z,100.00
2022-08-02T23:32:47.559Z,100.00
2022-08-02T23:35:16.895Z,100.00
2022-08-02T23:38:00.375Z,100.00
2022-08-02T23:40:39.153Z,100.00
2022-08-02T23:43:13.641Z,100.00
2022-08-02T23:45:45.475Z,100.00
2022-08-02T23:48:13.819Z,100.00
2022-08-02T23:50:42.395Z,100.00
2022-08-02T23:53:10.648Z,100.00
2022-08-02T23:55:38.936Z,100.00
2022-08-02T23:58:07.185Z,100.00
